Time;durP1;ratioP1;P1;durP2;ratioP2;P2;SDS_P1;SDS_P2;PMS_P1;PMS_P2;Temp;Humidity;BMP_temperature;BMP_pressure;BME280_temperature;BME280_humidity;BME280_pressure;Samples;Min_cycle;Max_cycle;Signal;HPM_P1;HPM_P2
2022/02/11 00:01:27;;;;;;;13.88;6.43;;;5.30;99.90;;;;;;5115598;28;20059;-68
2022/02/11 00:06:41;;;;;;;17.05;8.57;;;5.30;99.90;;;;;;5115116;28;20047;-68
2022/02/11 00:09:08;;;;;;;16.88;7.35;;;5.30;99.90;;;;;;5115455;28;20150;-68
2022/02/11 00:11:36;;;;;;;13.85;6.72;;;5.30;99.90;;;;;;5115109;28;20616;-66
2022/02/11 00:14:05;;;;;;;14.63;7.65;;;5.30;99.90;;;;;;5115117;28;20126;-68
2022/02/11 00:16:34;;;;;;;17.00;7.70;;;5.30;99.90;;;;;;5115004;28;20142;-66
2022/02/11 00:19:02;;;;;;;15.55;7.40;;;5.30;99.90;;;;;;5115176;28;20136;-67
2022/02/11 00:21:30;;;;;;;15.20;7.75;;;5.20;99.90;;;;;;5115052;28;20138;-67
2022/02/11 00:23:58;;;;;;;17.75;7.50;;;5.20;99.90;;;;;;5114782;28;20460;-67
2022/02/11 00:26:30;;;;;;;14.05;6.93;;;5.30;99.90;;;;;;5114628;28;20047;-67
2022/02/11 00:31:58;;;;;;;17.63;7.57;;;5.20;99.90;;;;;;5114841;28;20127;-67
2022/02/11 00:34:33;;;;;;;13.73;6.90;;;5.20;99.90;;;;;;5114529;28;20487;-67
2022/02/11 00:37:08;;;;;;;19.20;7.47;;;5.30;99.90;;;;;;5114804;28;20109;-66
2022/02/11 00:40:10;;;;;;;14.18;7.13;;;5.20;99.90;;;;;;5114937;28;20067;-66
2022/02/11 01:02:19;;;;;;;17.23;7.85;;;4.80;99.90;;;;;;5114392;28;20059;-68
2022/02/11 01:04:46;;;;;;;16.67;8.48;;;4.70;99.90;;;;;;5113805;28;20499;-69
2022/02/11 01:07:15;;;;;;;18.03;7.47;;;4.70;99.90;;;;;;5114173;28;20098;-68
2022/02/11 01:09:42;;;;;;;17.05;8.38;;;4.60;99.90;;;;;;5114120;28;20142;-68
2022/02/11 01:12:10;;;;;;;16.23;7.50;;;4.70;99.90;;;;;;5114273;28;20056;-68
2022/02/11 01:14:40;;;;;;;15.95;7.80;;;4.60;99.90;;;;;;5114034;28;20047;-68
2022/02/11 01:17:14;;;;;;;17.25;8.30;;;4.60;99.90;;;;;;5114284;28;20068;-68
2022/02/11 01:19:52;;;;;;;16.08;7.43;;;4.60;99.90;;;;;;5114464;28;20469;-68
2022/02/11 01:22:32;;;;;;;16.45;8.52;;;4.60;99.90;;;;;;5114340;28;20144;-68
2022/02/11 01:25:21;;;;;;;16.25;7.57;;;4.60;99.90;;;;;;5114009;28;20070;-69
2022/02/11 01:27:59;;;;;;;15.03;7.63;;;4.60;99.90;;;;;;5114315;28;20062;-68
2022/02/11 01:33:32;;;;;;;17.48;7.93;;;4.70;99.90;;;;;;5106457;28;20047;-68
2022/02/11 01:36:10;;;;;;;18.77;7.33;;;4.60;99.90;;;;;;5113604;28;20054;-68
2022/02/11 01:38:54;;;;;;;18.63;7.88;;;4.60;99.90;;;;;;5113569;28;20504;-68
2022/02/11 01:44:51;;;;;;;19.80;8.67;;;4.60;99.90;;;;;;5113296;28;20412;-66
2022/02/11 01:52:55;;;;;;;19.40;8.35;;;4.50;99.90;;;;;;5099931;28;20152;-68
2022/02/11 01:55:49;;;;;;;21.55;8.23;;;4.50;99.90;;;;;;5113549;28;20056;-68
2022/02/11 02:01:24;;;;;;;;;;;4.50;99.90;;;;;;5087207;28;20039;-67
2022/02/11 02:04:26;;;;;;;18.98;8.07;;;4.50;99.90;;;;;;5113312;28;19923;-67
2022/02/11 02:10:20;;;;;;;17.80;8.18;;;4.50;99.90;;;;;;5113298;28;20518;-67
2022/02/11 02:23:55;;;;;;;16.83;9.07;;;4.40;99.90;;;;;;5112859;28;20428;-67
2022/02/11 02:26:34;;;;;;;19.05;8.82;;;4.40;99.90;;;;;;5112781;28;20044;-67
2022/02/11 02:37:39;;;;;;;17.87;8.03;;;4.30;99.90;;;;;;5075581;28;20044;-67
2022/02/11 02:56:53;;;;;;;14.23;6.57;;;4.30;99.90;;;;;;5112963;28;20058;-67
2022/02/11 02:59:52;;;;;;;18.43;7.43;;;4.20;99.90;;;;;;5112830;28;20108;-67
2022/02/11 03:16:42;;;;;;;15.10;6.50;;;4.20;99.90;;;;;;5111979;28;20510;-67
2022/02/11 03:48:34;;;;;;;16.60;7.73;;;4.20;99.90;;;;;;5115493;28;20408;-69
2022/02/11 03:49:33;;;;;;;16.40;7.70;;;4.20;99.90;;;;;;5115846;28;20058;-68
2022/02/11 03:58:12;;;;;;;15.97;7.17;;;4.20;99.90;;;;;;5115650;28;20035;-68
2022/02/11 04:23:14;;;;;;;17.20;7.80;;;4.40;99.90;;;;;;5115262;28;20086;-68
2022/02/11 04:56:20;;;;;;;2.43;1.20;;;2.90;99.90;;;;;;5114314;28;20060;-67
2022/02/11 05:01:31;;;;;;;2.80;1.00;;;2.90;99.90;;;;;;5114584;28;20043;-67
2022/02/11 05:03:58;;;;;;;2.47;1.10;;;2.90;99.90;;;;;;5114510;28;20131;-67
2022/02/11 05:06:25;;;;;;;3.43;0.90;;;2.80;99.90;;;;;;5114401;28;20419;-67
2022/02/11 05:08:51;;;;;;;1.90;1.00;;;2.80;99.90;;;;;;5115221;28;20131;-66
2022/02/11 05:11:20;;;;;;;1.23;0.77;;;2.80;99.90;;;;;;5114620;28;20134;-67
2022/02/11 05:13:47;;;;;;;3.30;1.30;;;2.70;99.90;;;;;;5117551;28;20134;-67
2022/02/11 05:16:13;;;;;;;1.83;0.87;;;2.70;99.90;;;;;;5114192;28;20591;-66
2022/02/11 05:18:40;;;;;;;1.83;1.00;;;2.70;99.90;;;;;;5114197;28;20081;-67
2022/02/11 05:21:07;;;;;;;1.93;0.80;;;2.70;99.90;;;;;;5114298;28;20151;-67
2022/02/11 05:23:34;;;;;;;1.27;0.60;;;2.70;99.90;;;;;;5114002;28;20181;-67
2022/02/11 05:26:01;;;;;;;3.20;1.00;;;2.70;99.90;;;;;;5113736;28;20051;-67
2022/02/11 05:28:29;;;;;;;1.00;0.60;;;2.60;99.90;;;;;;5114042;28;20130;-67
2022/02/11 05:30:56;;;;;;;1.97;0.70;;;2.60;99.90;;;;;;5114661;28;20185;-67
2022/02/11 05:33:24;;;;;;;0.60;0.30;;;2.60;99.90;;;;;;5114937;28;20047;-67
2022/02/11 05:35:51;;;;;;;3.27;0.60;;;2.60;99.90;;;;;;5114444;28;20048;-67
2022/02/11 05:38:18;;;;;;;1.63;0.70;;;2.60;99.90;;;;;;5117145;28;20127;-68
2022/02/11 05:40:45;;;;;;;1.70;0.70;;;2.50;99.90;;;;;;5117892;28;20130;-68
2022/02/11 05:43:14;;;;;;;1.53;0.97;;;2.50;99.90;;;;;;5118347;28;20130;-68
2022/02/11 05:45:43;;;;;;;3.00;1.17;;;2.50;99.90;;;;;;5118438;28;20058;-69
2022/02/11 05:48:11;;;;;;;2.80;0.90;;;2.60;99.90;;;;;;5118484;28;20056;-68
2022/02/11 05:50:40;;;;;;;1.70;1.10;;;2.60;99.90;;;;;;5117327;28;20054;-67
2022/02/11 05:53:09;;;;;;;2.70;1.40;;;2.60;99.90;;;;;;5117373;28;20055;-68
2022/02/11 05:55:37;;;;;;;2.43;1.07;;;2.60;99.90;;;;;;5117234;28;20437;-68
2022/02/11 05:58:05;;;;;;;2.67;0.80;;;2.60;99.90;;;;;;5117711;28;20474;-68
2022/02/11 06:00:35;;;;;;;2.63;0.90;;;2.50;99.90;;;;;;5117828;28;20051;-68
2022/02/11 06:03:04;;;;;;;1.77;0.90;;;2.60;99.90;;;;;;5117733;28;20046;-68
2022/02/11 06:05:32;;;;;;;3.70;1.10;;;2.60;99.90;;;;;;5117597;28;20043;-67
2022/02/11 06:07:59;;;;;;;3.40;1.30;;;2.50;99.90;;;;;;5117542;28;20055;-68
2022/02/11 06:10:28;;;;;;;2.90;1.30;;;2.50;99.90;;;;;;5117632;28;20397;-67
2022/02/11 06:12:56;;;;;;;5.33;1.20;;;2.50;99.90;;;;;;5117555;28;20043;-67
2022/02/11 06:15:24;;;;;;;2.87;1.33;;;2.40;99.90;;;;;;5117116;28;20111;-69
2022/02/11 06:17:52;;;;;;;2.17;1.43;;;2.40;99.90;;;;;;5117390;28;20047;-67
2022/02/11 06:20:28;;;;;;;3.50;1.43;;;2.30;99.90;;;;;;5117652;28;20051;-67
2022/02/11 06:22:55;;;;;;;3.27;1.70;;;2.20;99.90;;;;;;5118780;28;20083;-68
2022/02/11 06:25:22;;;;;;;4.00;2.00;;;2.10;99.90;;;;;;5113562;28;20075;-69
2022/02/11 06:27:50;;;;;;;4.07;1.97;;;2.10;99.90;;;;;;5113584;28;20051;-68
2022/02/11 06:30:17;;;;;;;6.10;2.30;;;2.10;99.90;;;;;;5114667;28;20138;-68
2022/02/11 06:32:44;;;;;;;4.23;1.70;;;2.10;99.90;;;;;;5113533;28;20083;-68
2022/02/11 06:35:12;;;;;;;3.30;1.73;;;2.10;99.90;;;;;;5113195;28;20050;-68
2022/02/11 06:37:42;;;;;;;4.53;1.60;;;2.10;99.90;;;;;;5113304;28;20499;-68
2022/02/11 06:40:12;;;;;;;4.27;1.70;;;2.10;99.90;;;;;;5113629;28;20055;-68
2022/02/11 06:42:39;;;;;;;7.17;2.30;;;2.10;99.90;;;;;;5113521;28;20079;-68
2022/02/11 06:45:07;;;;;;;4.73;1.73;;;2.10;99.90;;;;;;5113195;28;20066;-67
2022/02/11 06:47:34;;;;;;;9.23;2.50;;;2.00;99.90;;;;;;5112902;28;20139;-68
2022/02/11 06:50:01;;;;;;;6.67;2.23;;;2.00;99.90;;;;;;5112752;28;20047;-67
2022/02/11 06:52:28;;;;;;;3.97;1.70;;;2.10;99.90;;;;;;5113124;28;20086;-68
2022/02/11 06:54:57;;;;;;;4.87;1.83;;;2.10;99.90;;;;;;5112534;28;20126;-68
2022/02/11 06:57:23;;;;;;;2.87;1.40;;;2.20;99.90;;;;;;5112824;28;20506;-68
2022/02/11 06:59:50;;;;;;;5.87;1.47;;;2.20;99.90;;;;;;5112921;28;20044;-68
2022/02/11 07:02:20;;;;;;;2.67;1.63;;;2.20;99.90;;;;;;5112232;28;20138;-68
2022/02/11 07:04:47;;;;;;;3.53;1.40;;;2.20;99.90;;;;;;5112528;28;20094;-68
2022/02/11 07:07:14;;;;;;;3.90;1.30;;;2.20;99.90;;;;;;5112713;28;20185;-68
2022/02/11 07:09:41;;;;;;;5.67;2.30;;;2.20;99.90;;;;;;5112952;28;20086;-67
2022/02/11 07:12:10;;;;;;;7.37;2.57;;;2.10;99.90;;;;;;5112857;28;20058;-68
2022/02/11 07:14:38;;;;;;;8.53;2.60;;;2.20;99.90;;;;;;5094025;28;20075;-67
2022/02/11 07:17:06;;;;;;;3.40;2.23;;;2.10;99.90;;;;;;5111861;28;20040;-68
2022/02/11 07:19:35;;;;;;;5.70;2.40;;;2.10;99.90;;;;;;5112040;28;20051;-68
2022/02/11 07:22:03;;;;;;;5.17;2.20;;;2.10;99.90;;;;;;5112582;28;20051;-67
2022/02/11 07:24:30;;;;;;;6.13;2.40;;;2.00;99.90;;;;;;5111929;28;20138;-68
2022/02/11 07:26:57;;;;;;;8.53;2.80;;;2.00;99.90;;;;;;5111816;28;20051;-68
2022/02/11 07:29:25;;;;;;;5.63;2.50;;;2.10;99.90;;;;;;5111911;28;20578;-68
2022/02/11 07:31:52;;;;;;;6.17;2.67;;;2.10;99.90;;;;;;5111987;28;20134;-68
2022/02/11 07:34:19;;;;;;;5.87;2.33;;;2.20;99.90;;;;;;5112136;28;20148;-68
2022/02/11 07:36:46;;;;;;;6.87;2.80;;;2.20;99.90;;;;;;5111401;28;20464;-68
2022/02/11 07:39:13;;;;;;;8.20;2.60;;;2.30;99.90;;;;;;5112034;28;20051;-67
2022/02/11 07:41:40;;;;;;;6.80;2.73;;;2.40;99.90;;;;;;5111829;28;20489;-68
2022/02/11 07:44:08;;;;;;;8.43;2.60;;;2.50;99.90;;;;;;5111877;28;20079;-68
2022/02/11 07:46:36;;;;;;;7.17;2.90;;;2.40;99.90;;;;;;5111458;28;20416;-68
2022/02/11 07:49:03;;;;;;;5.37;2.57;;;2.30;99.90;;;;;;5111820;28;20078;-68
2022/02/11 07:51:30;;;;;;;7.97;2.67;;;2.40;99.90;;;;;;5111917;28;20109;-68
2022/02/11 07:53:58;;;;;;;7.63;2.60;;;2.40;99.90;;;;;;5111697;28;20054;-68
2022/02/11 07:56:26;;;;;;;6.43;2.40;;;2.40;99.90;;;;;;5111451;28;20047;-68
2022/02/11 07:58:54;;;;;;;4.57;2.43;;;2.50;99.90;;;;;;5111688;28;20079;-68
2022/02/11 08:01:21;;;;;;;6.37;2.50;;;2.50;99.90;;;;;;5111814;28;20048;-68
2022/02/11 08:03:50;;;;;;;5.43;2.27;;;2.50;99.90;;;;;;5111502;28;20440;-68
2022/02/11 08:06:18;;;;;;;5.97;2.30;;;2.50;99.90;;;;;;5111275;28;20056;-68
2022/02/11 08:08:45;;;;;;;6.97;2.23;;;2.50;99.90;;;;;;5111617;28;20142;-68
2022/02/11 08:11:12;;;;;;;5.27;2.27;;;2.40;99.90;;;;;;5111828;28;20138;-68
2022/02/11 08:13:39;;;;;;;4.43;2.20;;;2.40;99.90;;;;;;5111833;28;20094;-68
2022/02/11 08:16:07;;;;;;;7.83;2.53;;;2.40;99.90;;;;;;5114641;28;20054;-68
2022/02/11 08:18:34;;;;;;;7.77;3.10;;;2.40;99.90;;;;;;5115770;28;20579;-69
2022/02/11 08:21:03;;;;;;;7.60;3.00;;;2.60;99.90;;;;;;5115839;28;20228;-69
2022/02/11 08:23:30;;;;;;;6.60;2.53;;;3.20;99.90;;;;;;5115040;28;20134;-68
2022/02/11 08:25:57;;;;;;;7.43;2.97;;;3.10;99.90;;;;;;5115301;28;20139;-69
2022/02/11 08:28:23;;;;;;;7.90;2.77;;;3.00;99.90;;;;;;5115128;28;20131;-68
2022/02/11 08:30:51;;;;;;;6.87;2.80;;;3.00;99.90;;;;;;5115216;28;20138;-67
2022/02/11 08:33:21;;;;;;;7.83;2.97;;;2.90;99.90;;;;;;5115006;28;20474;-67
2022/02/11 08:35:50;;;;;;;8.57;3.60;;;3.20;99.90;;;;;;5114498;28;20142;-67
2022/02/11 08:38:18;;;;;;;8.03;3.53;;;3.30;99.90;;;;;;5114943;28;20086;-67
2022/02/11 08:40:46;;;;;;;6.27;2.90;;;3.20;99.90;;;;;;5114908;28;20051;-67
2022/02/11 08:43:13;;;;;;;9.03;3.43;;;3.60;99.90;;;;;;5114974;28;20086;-67
2022/02/11 08:45:40;;;;;;;9.00;2.83;;;4.90;99.90;;;;;;5114703;28;20047;-68
2022/02/11 08:48:08;;;;;;;9.27;2.72;;;6.90;99.90;;;;;;5115180;28;20062;-67
2022/02/11 08:50:36;;;;;;;6.25;2.83;;;7.70;99.90;;;;;;5114694;28;20055;-68
2022/02/11 08:53:04;;;;;;;11.80;3.13;;;7.90;99.90;;;;;;5114882;28;20082;-67
2022/02/11 08:55:32;;;;;;;7.78;3.08;;;5.30;99.90;;;;;;5114366;28;20054;-67
2022/02/11 08:58:00;;;;;;;7.13;3.17;;;4.40;99.90;;;;;;5115446;28;20048;-68
2022/02/11 09:00:28;;;;;;;10.85;3.88;;;4.40;99.90;;;;;;5114930;28;20567;-67
2022/02/11 09:02:55;;;;;;;9.48;3.20;;;3.80;99.90;;;;;;5114481;28;20044;-67
2022/02/11 09:05:23;;;;;;;9.77;3.47;;;3.50;99.90;;;;;;5114454;28;20458;-67
2022/02/11 09:07:54;;;;;;;9.35;3.45;;;3.50;99.90;;;;;;5114840;28;20051;-67
2022/02/11 09:10:21;;;;;;;14.70;4.10;;;3.50;99.90;;;;;;5114538;28;20054;-67
2022/02/11 09:12:50;;;;;;;8.57;3.10;;;3.30;99.90;;;;;;5114642;28;20510;-67
2022/02/11 09:15:17;;;;;;;9.87;4.20;;;3.50;99.90;;;;;;5114339;28;20142;-67
2022/02/11 09:17:44;;;;;;;12.83;3.47;;;3.50;99.90;;;;;;5118002;28;20134;-67
2022/02/11 09:20:11;;;;;;;8.73;3.60;;;3.50;99.90;;;;;;5124787;28;20079;-67
2022/02/11 09:22:39;;;;;;;9.97;3.87;;;3.50;99.90;;;;;;5128294;28;20079;-67
2022/02/11 09:25:07;;;;;;;8.20;3.60;;;3.50;99.90;;;;;;5127751;27;20123;-67
2022/02/11 09:27:35;;;;;;;10.23;3.77;;;3.50;99.90;;;;;;5129098;28;20511;-67
2022/02/11 09:30:04;;;;;;;8.03;3.20;;;3.50;99.90;;;;;;5126838;28;20059;-67
2022/02/11 09:32:34;;;;;;;12.30;4.47;;;3.70;99.90;;;;;;5129383;28;20071;-67
2022/02/11 09:35:02;;;;;;;8.43;2.60;;;3.70;99.90;;;;;;5129130;28;20058;-68
2022/02/11 09:37:29;;;;;;;10.43;3.70;;;3.60;99.90;;;;;;5131796;28;20062;-67
2022/02/11 09:39:56;;;;;;;11.70;3.27;;;3.80;99.90;;;;;;5131986;28;20059;-68
2022/02/11 09:42:23;;;;;;;9.47;3.83;;;3.90;99.90;;;;;;5128112;28;20054;-67
2022/02/11 09:44:50;;;;;;;11.20;4.00;;;3.90;99.90;;;;;;5130785;28;20091;-67
2022/02/11 09:47:18;;;;;;;11.07;3.10;;;4.00;99.90;;;;;;5129944;28;20079;-68
2022/02/11 09:49:47;;;;;;;10.30;2.93;;;3.90;99.90;;;;;;5131727;28;20048;-67
2022/02/11 09:52:16;;;;;;;9.37;3.30;;;3.80;99.90;;;;;;5117549;28;20066;-68
2022/02/11 09:54:43;;;;;;;11.10;3.50;;;4.00;99.90;;;;;;5114310;28;20454;-67
2022/02/11 09:57:10;;;;;;;10.97;3.07;;;4.00;99.90;;;;;;5114307;28;20405;-67
2022/02/11 09:59:37;;;;;;;10.50;3.43;;;4.00;99.90;;;;;;5114080;28;20044;-67
2022/02/11 10:02:05;;;;;;;9.53;3.43;;;4.10;99.90;;;;;;5113744;28;20138;-67
2022/02/11 10:04:34;;;;;;;6.53;3.00;;;4.10;99.90;;;;;;5113754;28;20138;-67
2022/02/11 10:07:01;;;;;;;11.47;3.40;;;4.20;99.90;;;;;;5113438;28;20051;-67
2022/02/11 10:09:28;;;;;;;11.30;3.30;;;4.10;99.90;;;;;;5113134;28;20134;-67
2022/02/11 10:11:56;;;;;;;9.23;2.50;;;4.10;99.90;;;;;;5113379;28;20052;-67
2022/02/11 10:14:33;;;;;;;8.73;3.40;;;4.00;99.90;;;;;;5113201;28;20142;-67
2022/02/11 10:17:01;;;;;;;;;;;4.10;99.90;;;;;;5113464;28;20058;-67
2022/02/11 10:19:44;;;;;;;8.70;2.90;;;4.20;99.90;;;;;;5113208;28;19919;-67
2022/02/11 10:22:13;;;;;;;8.25;3.10;;;4.10;99.90;;;;;;5113341;28;20047;-67
2022/02/11 10:24:41;;;;;;;5.60;2.57;;;4.10;99.90;;;;;;5113054;28;20559;-67
2022/02/11 10:27:23;;;;;;;9.37;3.20;;;4.10;99.90;;;;;;5112913;28;20430;-68
2022/02/11 10:29:52;;;;;;;6.47;2.40;;;4.20;99.90;;;;;;5113147;28;20515;-68
2022/02/11 10:32:19;;;;;;;10.37;3.10;;;4.20;99.90;;;;;;5113245;28;20060;-68
2022/02/11 10:34:55;;;;;;;10.20;2.87;;;4.40;99.90;;;;;;5112934;28;20324;-68
2022/02/11 10:37:22;;;;;;;7.32;2.50;;;4.30;99.90;;;;;;5112102;28;20591;-68
2022/02/11 10:39:59;;;;;;;5.72;2.40;;;4.90;99.90;;;;;;5112617;28;20519;-68
2022/02/11 10:42:42;;;;;;;6.72;2.08;;;4.80;99.90;;;;;;5112805;28;20048;-68
2022/02/11 10:45:28;;;;;;;6.45;2.40;;;5.30;99.90;;;;;;5112449;28;20456;-68
2022/02/11 10:48:11;;;;;;;11.82;2.38;;;5.20;99.90;;;;;;5112438;28;20051;-68
2022/02/11 10:50:40;;;;;;;12.35;2.88;;;5.20;99.90;;;;;;5112645;28;20083;-68
2022/02/11 10:53:08;;;;;;;9.38;2.30;;;5.30;99.90;;;;;;5112631;28;20087;-68
2022/02/11 10:55:46;;;;;;;6.32;2.05;;;8.20;99.90;;;;;;5112135;28;20047;-67
2022/02/11 10:58:16;;;;;;;4.70;1.80;;;6.90;99.90;;;;;;5112503;28;20146;-67
2022/02/11 11:00:43;;;;;;;6.97;2.20;;;8.40;99.90;;;;;;5112386;28;20111;-68
2022/02/11 11:03:11;;;;;;;8.00;2.72;;;7.20;99.90;;;;;;5113574;28;20130;-68
2022/02/11 11:05:41;;;;;;;7.03;2.05;;;6.60;99.90;;;;;;5112972;28;20054;-68
2022/02/11 11:08:09;;;;;;;7.75;2.30;;;6.60;99.90;;;;;;5112195;28;20423;-68
2022/02/11 11:10:39;;;;;;;6.35;2.10;;;5.80;99.90;;;;;;5112180;28;20499;-68
2022/02/11 11:13:07;;;;;;;5.97;1.88;;;8.20;99.90;;;;;;5112183;28;20101;-68
2022/02/11 11:15:34;;;;;;;4.63;1.98;;;8.40;99.90;;;;;;5111937;28;20058;-68
2022/02/11 11:18:06;;;;;;;8.25;2.50;;;7.30;99.90;;;;;;5111939;28;20130;-69
2022/02/11 11:20:35;;;;;;;9.10;3.03;;;6.10;99.90;;;;;;5112319;28;20056;-68
2022/02/11 11:23:09;;;;;;;12.55;2.03;;;5.60;99.90;;;;;;5112990;28;20047;-68
2022/02/11 11:25:55;;;;;;;7.90;2.53;;;5.00;99.90;;;;;;5112218;28;20583;-68
2022/02/11 11:28:45;;;;;;;7.95;2.78;;;4.80;99.90;;;;;;5111688;28;20075;-68
2022/02/11 11:31:15;;;;;;;7.10;2.25;;;4.90;99.90;;;;;;5112343;28;20317;-68
2022/02/11 11:33:42;;;;;;;8.25;2.38;;;4.90;99.90;;;;;;5110088;28;20522;-68
2022/02/11 11:36:17;;;;;;;6.72;1.92;;;4.80;99.90;;;;;;5111690;28;20435;-68
2022/02/11 11:38:56;;;;;;;4.90;1.80;;;4.70;99.90;;;;;;5112438;28;20043;-68
2022/02/11 11:41:25;;;;;;;8.63;2.17;;;4.60;99.90;;;;;;5112616;28;20052;-68
2022/02/11 11:43:53;;;;;;;7.47;2.70;;;4.80;99.90;;;;;;5112089;28;20097;-68
2022/02/11 11:46:26;;;;;;;8.05;2.45;;;5.90;99.90;;;;;;5111588;28;20134;-68
2022/02/11 11:48:55;;;;;;;9.70;2.55;;;5.80;99.90;;;;;;5113428;28;20051;-68
2022/02/11 11:51:22;;;;;;;7.50;1.88;;;9.50;99.90;;;;;;5116823;28;20086;-68
2022/02/11 11:53:51;;;;;;;9.85;2.45;;;10.70;99.90;;;;;;5116226;28;20135;-68
2022/02/11 11:56:35;;;;;;;11.25;2.20;;;10.40;99.90;;;;;;5116221;28;20118;-68
2022/02/11 11:59:14;;;;;;;8.15;1.70;;;7.80;99.90;;;;;;5116168;28;20126;-68
2022/02/11 12:01:55;;;;;;;7.30;1.77;;;6.40;99.90;;;;;;5116715;28;20055;-68
2022/02/11 12:04:24;;;;;;;6.63;1.48;;;5.90;99.90;;;;;;5116035;28;20058;-68
2022/02/11 12:06:53;;;;;;;7.40;1.77;;;5.80;99.90;;;;;;5116421;28;20051;-68
2022/02/11 12:09:22;;;;;;;7.85;3.30;;;5.70;99.90;;;;;;5115871;28;20059;-68
2022/02/11 12:11:54;;;;;;;6.40;1.90;;;5.60;99.90;;;;;;5116402;28;20134;-68
2022/02/11 12:14:21;;;;;;;8.13;2.13;;;5.40;99.90;;;;;;5115943;28;20062;-68
2022/02/11 12:16:48;;;;;;;7.03;1.42;;;5.30;99.90;;;;;;5115627;28;20130;-68
2022/02/11 12:19:15;;;;;;;12.40;1.95;;;5.30;99.90;;;;;;5117376;28;20107;-68
2022/02/11 12:21:42;;;;;;;4.68;2.22;;;5.20;99.90;;;;;;5118337;28;20044;-68
2022/02/11 12:29:47;;;;;;;3.42;1.40;;;5.50;99.90;;;;;;5116557;28;20054;-68
2022/02/11 12:32:13;;;;;;;5.75;1.77;;;5.40;99.90;;;;;;5116062;28;20052;-67
2022/02/11 12:34:46;;;;;;;5.72;1.90;;;5.50;99.90;;;;;;5115280;28;20130;-70
2022/02/11 12:37:13;;;;;;;8.40;1.90;;;5.50;99.90;;;;;;5115587;28;20079;-67
2022/02/11 12:39:40;;;;;;;5.68;1.48;;;5.40;99.90;;;;;;5115409;28;20130;-67
2022/02/11 12:42:09;;;;;;;4.75;2.03;;;5.20;99.90;;;;;;5115686;28;20134;-67
2022/02/11 12:44:36;;;;;;;8.10;1.90;;;4.90;99.90;;;;;;5115119;28;20054;-68
2022/02/11 12:47:03;;;;;;;10.82;2.10;;;4.70;99.90;;;;;;5114863;28;20050;-68
2022/02/11 12:49:33;;;;;;;8.50;2.37;;;4.60;99.90;;;;;;5115293;28;20408;-68
2022/02/11 12:52:02;;;;;;;5.67;1.93;;;4.80;99.90;;;;;;5117195;28;20056;-67
2022/02/11 12:54:30;;;;;;;6.90;2.37;;;4.50;99.90;;;;;;5115189;28;20048;-67
2022/02/11 12:57:02;;;;;;;6.57;2.00;;;4.90;99.90;;;;;;5115692;28;20047;-68
2022/02/11 12:59:31;;;;;;;14.17;2.20;;;5.80;99.90;;;;;;5119481;28;20115;-69
2022/02/11 13:01:59;;;;;;;4.03;1.88;;;7.10;99.90;;;;;;5119427;28;20075;-67
2022/02/11 13:04:26;;;;;;;5.50;1.83;;;7.00;99.90;;;;;;5118372;28;20490;-67
2022/02/11 13:06:54;;;;;;;4.38;1.80;;;8.00;99.90;;;;;;5116773;28;20094;-67
2022/02/11 13:09:22;;;;;;;7.60;2.25;;;6.50;99.90;;;;;;5118181;28;20058;-67
2022/02/11 13:11:55;;;;;;;5.68;2.00;;;6.10;99.90;;;;;;5117883;28;20407;-68
2022/02/11 13:14:22;;;;;;;6.95;2.25;;;5.60;99.90;;;;;;5117301;28;20067;-67
2022/02/11 13:16:51;;;;;;;5.97;2.33;;;5.50;99.90;;;;;;5117270;28;20157;-67
2022/02/11 13:19:20;;;;;;;7.53;2.20;;;5.30;99.90;;;;;;5117060;28;20526;-67
2022/02/11 13:21:47;;;;;;;8.90;2.28;;;5.10;99.90;;;;;;5116769;28;20054;-67
2022/02/11 13:24:14;;;;;;;7.28;2.28;;;4.90;99.90;;;;;;5116306;28;20130;-67
2022/02/11 13:26:41;;;;;;;7.63;2.70;;;5.30;99.90;;;;;;5115268;28;20054;-67
2022/02/11 13:29:15;;;;;;;6.05;2.35;;;5.70;99.90;;;;;;5114889;28;20142;-67
2022/02/11 13:31:51;;;;;;;6.75;1.92;;;5.50;99.90;;;;;;5114092;28;20054;-66
2022/02/11 13:34:18;;;;;;;6.78;1.85;;;5.50;99.90;;;;;;5114425;28;20067;-66
2022/02/11 13:36:48;;;;;;;6.32;2.13;;;5.10;99.90;;;;;;5113562;28;20054;-66
2022/02/11 13:39:30;;;;;;;11.98;2.63;;;5.40;99.90;;;;;;5114111;28;20047;-66
2022/02/11 13:41:58;;;;;;;7.47;1.98;;;5.30;99.90;;;;;;5114338;28;20059;-66
2022/02/11 13:44:24;;;;;;;10.90;2.03;;;5.70;99.90;;;;;;5114761;28;20055;-66
2022/02/11 13:46:54;;;;;;;6.43;2.15;;;6.90;99.90;;;;;;5114259;28;20052;-66
2022/02/11 13:49:22;;;;;;;7.57;2.00;;;6.50;99.90;;;;;;5113899;28;20062;-67
2022/02/11 13:54:57;;;;;;;6.28;1.90;;;5.60;99.90;;;;;;5115073;28;20074;-66
2022/02/11 13:57:25;;;;;;;7.75;1.80;;;5.20;99.90;;;;;;5120377;28;20051;-66
2022/02/11 13:59:51;;;;;;;7.38;1.50;;;5.10;99.90;;;;;;5120625;28;20123;-66
2022/02/11 14:02:22;;;;;;;6.25;1.52;;;4.90;99.90;;;;;;5119034;28;20135;-66
2022/02/11 14:05:01;;;;;;;5.90;1.48;;;4.60;99.90;;;;;;5113611;28;20470;-66
2022/02/11 14:07:28;;;;;;;5.85;1.30;;;4.50;99.90;;;;;;5113758;28;20130;-67
2022/02/11 14:09:55;;;;;;;7.05;1.40;;;4.50;99.90;;;;;;5113587;28;20058;-67
2022/02/11 14:12:30;;;;;;;7.75;1.42;;;4.30;99.90;;;;;;5112849;28;20083;-67
2022/02/11 14:14:59;;;;;;;7.53;1.83;;;4.40;99.90;;;;;;5113264;28;20063;-66
2022/02/11 14:17:27;;;;;;;8.10;1.40;;;4.40;99.90;;;;;;5113173;28;20134;-67
2022/02/11 14:19:54;;;;;;;4.50;1.95;;;4.90;99.90;;;;;;5113391;28;20100;-66
2022/02/11 14:22:21;;;;;;;5.40;1.23;;;5.30;99.90;;;;;;5113304;28;20179;-67
2022/02/11 14:24:48;;;;;;;6.85;1.95;;;5.70;99.90;;;;;;5112724;28;20135;-67
2022/02/11 14:27:15;;;;;;;6.78;1.52;;;5.90;99.90;;;;;;5113014;28;20138;-67
2022/02/11 14:29:43;;;;;;;4.70;1.30;;;6.20;99.90;;;;;;5113318;28;20048;-67
2022/02/11 14:32:10;;;;;;;8.07;1.58;;;6.30;99.90;;;;;;5112949;28;20138;-67
2022/02/11 14:34:41;;;;;;;10.63;1.48;;;6.50;99.90;;;;;;5112692;28;20468;-67
2022/02/11 14:37:08;;;;;;;7.50;2.42;;;6.40;99.90;;;;;;5113069;28;20407;-67
2022/02/11 14:39:35;;;;;;;6.53;1.60;;;6.20;99.90;;;;;;5112731;28;20092;-67
2022/02/11 14:42:04;;;;;;;4.22;1.40;;;5.90;99.90;;;;;;5112499;28;20400;-67
2022/02/11 14:44:32;;;;;;;9.98;1.55;;;6.00;99.90;;;;;;5112499;28;20083;-67
2022/02/11 14:47:00;;;;;;;4.20;1.40;;;5.90;99.90;;;;;;5112379;28;20586;-67
2022/02/11 14:49:28;;;;;;;7.35;1.77;;;5.90;99.90;;;;;;5112562;28;20101;-67
2022/02/11 14:51:58;;;;;;;4.75;1.60;;;5.80;99.90;;;;;;5112719;28;20052;-67
2022/02/11 14:54:25;;;;;;;7.72;1.45;;;5.80;99.90;;;;;;5112588;28;20047;-67
2022/02/11 14:56:55;;;;;;;6.30;1.60;;;5.80;99.90;;;;;;5112378;28;20134;-66
2022/02/11 14:59:22;;;;;;;5.18;1.42;;;5.80;99.90;;;;;;5112710;28;20083;-67
2022/02/11 15:01:50;;;;;;;12.10;2.10;;;5.80;99.90;;;;;;5112586;28;20077;-66
2022/02/11 15:04:17;;;;;;;14.18;2.08;;;5.70;99.90;;;;;;5113085;28;20140;-67
2022/02/11 15:06:46;;;;;;;7.50;1.52;;;5.70;99.90;;;;;;5112564;28;20089;-66
2022/02/11 15:09:15;;;;;;;5.70;1.88;;;5.80;99.90;;;;;;5112990;28;20051;-66
2022/02/11 15:11:42;;;;;;;5.07;1.48;;;5.90;99.90;;;;;;5112841;28;20526;-67
2022/02/11 15:14:10;;;;;;;7.70;1.75;;;5.90;99.90;;;;;;5112617;28;20043;-66
2022/02/11 15:16:37;;;;;;;9.25;1.63;;;6.00;99.90;;;;;;5112431;28;20044;-67
2022/02/11 15:19:06;;;;;;;8.68;1.50;;;6.00;99.90;;;;;;5112208;28;20138;-67
2022/02/11 15:21:33;;;;;;;8.68;1.70;;;6.00;99.90;;;;;;5112601;28;20120;-67
2022/02/11 15:24:01;;;;;;;5.85;1.38;;;6.00;99.90;;;;;;5111970;28;20134;-67
2022/02/11 15:26:29;;;;;;;8.15;1.77;;;6.00;99.90;;;;;;5111929;28;20052;-66
2022/02/11 15:28:56;;;;;;;6.28;1.65;;;6.30;99.90;;;;;;5112270;28;20553;-67
2022/02/11 15:31:23;;;;;;;5.97;1.60;;;6.20;99.90;;;;;;5112168;28;20055;-66
2022/02/11 15:33:51;;;;;;;7.65;1.48;;;6.10;99.90;;;;;;5112149;28;20138;-67
2022/02/11 15:36:17;;;;;;;5.80;1.30;;;6.00;99.90;;;;;;5111914;28;20130;-67
2022/02/11 15:38:45;;;;;;;8.27;1.40;;;5.90;99.90;;;;;;5112269;28;20047;-67
2022/02/11 15:41:12;;;;;;;5.50;1.80;;;5.80;99.90;;;;;;5111954;28;20126;-67
2022/02/11 15:43:40;;;;;;;11.95;2.13;;;5.80;99.90;;;;;;5112545;28;20057;-66
2022/02/11 15:46:08;;;;;;;6.30;1.60;;;5.70;99.90;;;;;;5111946;28;20130;-67
2022/02/11 15:48:39;;;;;;;8.57;1.63;;;5.60;99.90;;;;;;5111970;28;20138;-67
2022/02/11 15:51:06;;;;;;;3.47;1.10;;;5.50;99.90;;;;;;5112277;28;20151;-66
2022/02/11 15:53:34;;;;;;;8.38;1.65;;;5.50;99.90;;;;;;5112178;28;20094;-66
2022/02/11 15:56:01;;;;;;;8.18;2.08;;;5.50;99.90;;;;;;5111474;28;20484;-67
2022/02/11 15:58:28;;;;;;;12.23;2.10;;;5.40;99.90;;;;;;5111700;28;20047;-67
2022/02/11 16:00:57;;;;;;;9.93;2.15;;;5.40;99.90;;;;;;5111904;28;20568;-66
2022/02/11 16:03:25;;;;;;;7.95;2.00;;;5.40;99.90;;;;;;5112342;28;20044;-66
2022/02/11 16:05:52;;;;;;;9.15;1.70;;;5.30;99.90;;;;;;5112231;28;20090;-67
2022/02/11 16:08:19;;;;;;;13.32;2.20;;;5.30;99.90;;;;;;5111906;28;20093;-67
2022/02/11 16:10:46;;;;;;;10.45;2.45;;;5.20;99.90;;;;;;5111478;28;20083;-67
2022/02/11 16:13:13;;;;;;;10.70;1.85;;;5.20;99.90;;;;;;5112203;28;20130;-67
2022/02/11 16:15:41;;;;;;;10.40;1.55;;;5.10;99.90;;;;;;5111754;28;20130;-67
2022/02/11 16:18:14;;;;;;;8.15;1.67;;;5.10;99.90;;;;;;5111775;28;20051;-66
2022/02/11 16:20:44;;;;;;;12.35;2.25;;;5.10;99.90;;;;;;5111949;28;20071;-67